createdAt,value
2022-08-18T00:02:38.860Z,6.32
2022-08-18T00:07:46.943Z,6.63
2022-08-18T00:12:48.916Z,5.90
2022-08-18T00:17:51.010Z,6.40
2022-08-18T00:22:53.470Z,7.95
2022-08-18T00:27:55.240Z,7.78
2022-08-18T00:32:58.798Z,8.20
2022-08-18T00:38:02.697Z,6.25
2022-08-18T00:43:07.650Z,8.02
2022-08-18T00:48:11.129Z,5.88
2022-08-18T00:53:35.499Z,5.97
2022-08-18T00:58:45.744Z,6.85
2022-08-18T01:03:53.724Z,6.13
2022-08-18T01:08:56.062Z,7.05
2022-08-18T01:13:58.784Z,9.93
2022-08-18T01:19:18.907Z,7.10
2022-08-18T01:24:46.281Z,7.13
2022-08-18T01:29:50.159Z,6.93
2022-08-18T01:34:52.312Z,8.85
2022-08-18T01:41:11.210Z,8.45
2022-08-18T01:45:17.648Z,6.85
2022-08-18T01:50:19.467Z,6.68
2022-08-18T01:55:21.609Z,6.82
2022-08-18T02:00:24.984Z,7.40
2022-08-18T02:05:36.943Z,8.13
2022-08-18T02:10:40.217Z,10.65
2022-08-18T02:15:42.844Z,6.90
2022-08-18T02:20:44.879Z,8.15
2022-08-18T02:25:46.606Z,6.70
2022-08-18T02:30:48.328Z,6.38
2022-08-18T02:35:56.245Z,9.20
2022-08-18T02:41:00.308Z,6.80
2022-08-18T02:46:02.335Z,6.68
2022-08-18T02:51:09.491Z,8.00
2022-08-18T02:56:40.390Z,7.38
2022-08-18T03:01:46.157Z,8.02
2022-08-18T03:06:48.018Z,11.52
2022-08-18T03:11:49.742Z,10.32
2022-08-18T03:16:54.892Z,8.77
2022-08-18T03:22:02.732Z,8.00
2022-08-18T03:27:06.791Z,8.40
2022-08-18T03:32:08.706Z,8.43
2022-08-18T03:37:10.650Z,10.95
2022-08-18T03:42:12.447Z,7.80
2022-08-18T03:47:14.161Z,6.70
2022-08-18T03:52:16.206Z,7.32
2022-08-18T03:57:17.974Z,7.25
2022-08-18T04:02:19.722Z,9.63
2022-08-18T04:07:21.447Z,6.40
2022-08-18T04:12:23.298Z,7.30
2022-08-18T04:17:25.326Z,8.88
2022-08-18T04:22:27.410Z,8.63
2022-08-18T04:27:29.942Z,6.10
2022-08-18T04:32:32.033Z,6.90
2022-08-18T04:37:37.936Z,5.93
2022-08-18T04:42:43.483Z,7.50
2022-08-18T04:47:45.349Z,10.50
2022-08-18T04:53:05.743Z,8.35
2022-08-18T04:58:07.881Z,10.30
2022-08-18T05:03:09.866Z,10.93
2022-08-18T05:08:11.544Z,11.13
2022-08-18T05:13:16.588Z,9.68
2022-08-18T05:18:20.245Z,12.05
2022-08-18T05:23:23.358Z,11.35
2022-08-18T05:28:25.293Z,11.60
2022-08-18T05:33:26.977Z,10.30
2022-08-18T05:38:40.089Z,8.98
2022-08-18T05:43:51.344Z,12.50
2022-08-18T05:48:54.024Z,12.70
2022-08-18T05:54:14.603Z,10.23
2022-08-18T05:59:33.410Z,10.10
2022-08-18T06:04:41.589Z,10.40
2022-08-18T06:09:52.809Z,11.27
2022-08-18T06:15:10.331Z,10.55
2022-08-18T06:20:20.634Z,10.82
2022-08-18T06:25:27.442Z,8.50
2022-08-18T06:30:43.374Z,10.95
2022-08-18T06:36:02.643Z,11.73
2022-08-18T06:41:40.589Z,12.98
2022-08-18T06:47:09.419Z,13.65
2022-08-18T06:52:33.612Z,10.75
2022-08-18T06:57:53.769Z,11.95
2022-08-18T07:03:08.141Z,14.40
2022-08-18T07:08:30.854Z,13.82
2022-08-18T07:13:40.348Z,13.25
2022-08-18T07:18:43.720Z,14.82
2022-08-18T07:24:23.186Z,16.63
2022-08-18T07:29:20.684Z,16.45
2022-08-18T07:34:36.474Z,15.77
2022-08-18T07:39:48.491Z,14.15
2022-08-18T07:45:00.483Z,16.27
2022-08-18T07:50:27.046Z,15.77
2022-08-18T07:55:35.509Z,13.93
2022-08-18T08:01:10.746Z,21.52
2022-08-18T08:06:55.361Z,17.70
2022-08-18T08:12:37.088Z,16.23
2022-08-18T08:17:43.632Z,16.50
2022-08-18T08:22:58.162Z,15.55
2022-08-18T08:28:03.178Z,18.42
2022-08-18T08:33:17.211Z,19.20
2022-08-18T08:38:42.161Z,18.02
2022-08-18T08:43:49.116Z,16.77
2022-08-18T08:48:59.323Z,18.52
2022-08-18T08:54:36.337Z,19.80
2022-08-18T08:59:39.925Z,21.42
2022-08-18T09:05:08.765Z,21.23
2022-08-18T09:10:32.066Z,20.23
2022-08-18T09:15:41.070Z,19.77
2022-08-18T09:20:45.795Z,19.38
2022-08-18T09:25:54.571Z,16.90
2022-08-18T09:31:03.008Z,25.17
2022-08-18T09:36:18.453Z,22.98
2022-08-18T09:41:33.263Z,20.80
2022-08-18T09:46:44.073Z,20.83
2022-08-18T09:51:45.798Z,18.95
2022-08-18T09:56:55.537Z,16.65
2022-08-18T10:01:57.573Z,20.60
2022-08-18T10:07:21.361Z,15.93
2022-08-18T10:12:44.083Z,17.23
2022-08-18T10:18:22.586Z,18.17
2022-08-18T10:23:49.457Z,18.40
2022-08-18T10:29:07.092Z,15.70
2022-08-18T10:34:19.307Z,16.13
2022-08-18T10:39:27.272Z,16.13
2022-08-18T10:44:32.302Z,12.75
2022-08-18T10:49:37.961Z,15.90
2022-08-18T10:55:24.109Z,18.95
2022-08-18T11:00:48.653Z,16.27
2022-08-18T11:05:50.390Z,15.32
2022-08-18T11:11:32.508Z,14.13
2022-08-18T11:16:41.518Z,15.82
2022-08-18T11:21:46.021Z,14.95
2022-08-18T11:32:19.976Z,15.50
2022-08-18T11:37:51.321Z,18.58
2022-08-18T11:42:56.337Z,16.83
2022-08-18T11:48:09.495Z,11.57
2022-08-18T11:53:35.185Z,15.10
2022-08-18T11:59:02.424Z,14.90
2022-08-18T12:04:14.986Z,13.98
2022-08-18T12:20:18.848Z,12.32
2022-08-18T12:30:43.087Z,14.95
2022-08-18T12:35:45.773Z,10.15
2022-08-18T12:40:48.125Z,12.32
2022-08-18T12:45:49.983Z,12.68
2022-08-18T12:50:55.863Z,13.40
2022-08-18T12:56:01.727Z,14.88
2022-08-18T13:01:04.347Z,16.58
2022-08-18T13:06:06.383Z,20.13
2022-08-18T13:11:15.181Z,17.30
2022-08-18T13:16:38.788Z,16.35
2022-08-18T13:21:49.486Z,13.63
2022-08-18T13:26:51.600Z,14.93
2022-08-18T13:31:57.956Z,15.23
2022-08-18T13:36:59.696Z,13.55
2022-08-18T13:42:26.634Z,17.35
2022-08-18T13:47:29.257Z,16.13
2022-08-18T13:52:35.587Z,16.23
2022-08-18T13:57:41.902Z,14.77
2022-08-18T14:02:45.130Z,19.05
2022-08-18T14:07:47.680Z,13.60
2022-08-18T14:12:56.261Z,13.73
2022-08-18T14:17:59.062Z,15.10
2022-08-18T14:23:21.755Z,14.65
2022-08-18T14:28:25.722Z,15.23
2022-08-18T14:33:49.599Z,13.63
2022-08-18T14:38:51.723Z,14.35
2022-08-18T14:44:12.356Z,14.07
2022-08-18T14:49:15.537Z,16.30
2022-08-18T14:54:31.446Z,17.05
2022-08-18T14:59:34.675Z,18.25
2022-08-18T15:04:54.541Z,19.50
2022-08-18T15:10:14.812Z,19.77
2022-08-18T15:15:18.645Z,22.83
2022-08-18T15:20:29.118Z,18.88
2022-08-18T15:25:47.238Z,19.90
2022-08-18T15:36:19.936Z,20.25
2022-08-18T15:41:35.557Z,20.00
2022-08-18T15:46:47.276Z,21.65
2022-08-18T15:51:55.124Z,19.55
2022-08-18T15:56:58.808Z,21.45
2022-08-18T16:02:00.969Z,16.25
2022-08-18T16:07:02.721Z,19.50
2022-08-18T16:12:04.736Z,16.80
2022-08-18T16:17:13.145Z,17.55
2022-08-18T16:22:19.878Z,17.42
2022-08-18T16:27:23.639Z,14.95
2022-08-18T16:32:25.358Z,17.17
2022-08-18T16:37:27.421Z,17.15
2022-08-18T16:42:32.956Z,15.02
2022-08-18T16:47:41.213Z,15.95
2022-08-18T16:52:42.943Z,16.73
2022-08-18T16:58:03.919Z,16.58
2022-08-18T17:03:25.288Z,20.20
2022-08-18T17:08:27.193Z,20.52
2022-08-18T17:13:29.718Z,21.13
2022-08-18T17:18:31.802Z,22.48
2022-08-18T17:23:34.130Z,21.25
2022-08-18T17:28:50.346Z,20.52
2022-08-18T17:33:57.238Z,21.23
2022-08-18T17:39:01.452Z,18.08
2022-08-18T17:44:05.429Z,16.73
2022-08-18T17:49:25.452Z,17.45
2022-08-18T17:54:40.843Z,18.75
2022-08-18T18:00:11.432Z,20.27
2022-08-18T18:05:16.773Z,22.77
2022-08-18T18:10:34.077Z,17.20
2022-08-18T18:15:40.155Z,15.75
2022-08-18T18:20:43.699Z,17.83
2022-08-18T18:25:45.916Z,17.60
2022-08-18T18:30:47.636Z,14.18
2022-08-18T18:35:54.520Z,15.35
2022-08-18T18:41:04.426Z,13.63
2022-08-18T18:46:18.640Z,13.45
2022-08-18T18:51:33.483Z,14.93
2022-08-18T18:56:56.288Z,13.63
2022-08-18T19:02:35.986Z,15.73
2022-08-18T19:07:53.086Z,15.10
2022-08-18T19:13:00.707Z,13.73
2022-08-18T19:18:24.541Z,20.05
2022-08-18T19:23:52.485Z,17.38
2022-08-18T19:29:11.963Z,14.77
2022-08-18T19:34:22.730Z,13.48
2022-08-18T19:39:44.055Z,14.55
2022-08-18T19:45:16.429Z,14.50
2022-08-18T19:50:35.660Z,13.93
2022-08-18T19:56:02.655Z,13.35
2022-08-18T20:01:21.070Z,13.60
2022-08-18T20:06:34.393Z,13.25
2022-08-18T20:12:02.305Z,14.55
2022-08-18T20:17:09.773Z,14.82
2022-08-18T20:22:29.111Z,17.23
2022-08-18T20:27:35.317Z,16.48
2022-08-18T20:32:37.552Z,18.80
2022-08-18T20:37:42.640Z,24.23
2022-08-18T20:42:56.394Z,26.58
2022-08-18T20:48:31.911Z,23.98
2022-08-18T20:53:58.757Z,28.10
2022-08-18T20:59:11.945Z,29.10
2022-08-18T21:04:13.751Z,32.22
2022-08-18T21:09:18.569Z,31.08
2022-08-18T21:14:29.740Z,26.50
2022-08-18T21:19:40.174Z,26.38
2022-08-18T21:24:44.903Z,26.67
2022-08-18T21:29:49.563Z,26.30
2022-08-18T21:34:51.686Z,25.35
2022-08-18T21:39:59.415Z,28.50
2022-08-18T21:45:01.468Z,24.70
2022-08-18T21:50:23.099Z,21.55
2022-08-18T21:55:30.561Z,21.90
2022-08-18T22:00:39.863Z,23.00
2022-08-18T22:05:58.504Z,21.52
2022-08-18T22:12:01.069Z,19.77
2022-08-18T22:17:24.676Z,23.80
2022-08-18T22:22:49.429Z,23.90
2022-08-18T22:27:53.561Z,21.30
2022-08-18T22:32:55.292Z,23.77
2022-08-18T22:37:57.026Z,23.20
2022-08-18T22:42:58.780Z,23.15
2022-08-18T22:48:00.879Z,23.65
2022-08-18T22:53:02.689Z,21.60
2022-08-18T22:58:04.507Z,23.83
2022-08-18T23:03:09.247Z,23.55
2022-08-18T23:08:10.964Z,22.63
2022-08-18T23:13:12.765Z,21.67
2022-08-18T23:18:19.407Z,24.30
2022-08-18T23:23:23.976Z,21.33
2022-08-18T23:28:27.173Z,23.45
2022-08-18T23:33:28.953Z,29.25
2022-08-18T23:38:31.615Z,29.33
2022-08-18T23:43:35.887Z,29.42
2022-08-18T23:48:37.573Z,30.38
2022-08-18T23:53:39.264Z,33.78
2022-08-18T23:58:40.975Z,34.42
